Time;durP1;ratioP1;P1;durP2;ratioP2;P2;SDS_P1;SDS_P2;PMS_P1;PMS_P2;Temp;Humidity;BMP_temperature;BMP_pressure;BME280_temperature;BME280_humidity;BME280_pressure;Samples;Min_cycle;Max_cycle;Signal;HPM_P1;HPM_P2
2022/03/15 00:01:45;;;;;;;;;68.00;52.00;;;;;-0.01;49.69;101307.38;6284072;20;2500286;-45
2022/03/15 00:04:13;;;;;;;;;71.50;51.50;;;;;0.13;49.07;101295.16;6309984;20;2498167;-46
2022/03/15 00:06:41;;;;;;;;;73.50;56.50;;;;;-0.15;50.32;101293.19;6278829;20;2500362;-46
2022/03/15 00:09:09;;;;;;;;;67.00;51.00;;;;;0.08;49.78;101280.13;6278282;20;2500287;-44
2022/03/15 00:11:37;;;;;;;;;66.00;50.00;;;;;0.05;49.81;101281.00;6283175;20;2871110;-46
2022/03/15 00:14:07;;;;;;;;;68.50;52.50;;;;;-0.02;50.38;101281.84;6281648;20;2491965;-46
2022/03/15 00:16:35;;;;;;;;;74.00;52.00;;;;;0.50;48.59;101289.22;6287773;20;2491920;-45
2022/03/15 00:19:03;;;;;;;;;67.00;54.00;;;;;0.07;49.45;101287.19;6280252;20;2499215;-43
2022/03/15 00:21:32;;;;;;;;;74.00;58.50;;;;;-0.45;51.19;101286.75;6284369;20;2862782;-44
2022/03/15 00:24:02;;;;;;;;;79.00;57.00;;;;;-0.94;51.64;101289.78;6286028;20;2885718;-47
2022/03/15 00:26:32;;;;;;;;;87.67;63.33;;;;;-0.92;51.77;101282.78;6285223;20;3665867;-46
2022/03/15 00:29:02;;;;;;;;;98.33;67.33;;;;;-0.45;51.03;101278.84;6313952;20;3655417;-46
2022/03/15 00:31:32;;;;;;;;;102.00;71.00;;;;;-0.09;49.81;101272.09;6315012;20;3676366;-44
2022/03/15 00:34:02;;;;;;;;;104.67;72.33;;;;;-0.33;50.82;101273.69;6316203;20;3700238;-49
2022/03/15 00:36:34;;;;;;;;;86.67;67.00;;;;;-0.20;50.76;101273.78;6285240;20;2884725;-48
2022/03/15 00:39:04;;;;;;;;;98.00;68.00;;;;;-0.07;50.38;101276.53;6314971;20;2842048;-47
2022/03/15 00:41:34;;;;;;;;;96.67;68.33;;;;;-0.30;50.72;101276.34;6284818;20;2896155;-47
2022/03/15 00:44:02;;;;;;;;;74.00;54.00;;;;;-0.10;50.82;101284.44;6311810;20;2468073;-49
2022/03/15 00:46:29;;;;;;;;;79.50;60.50;;;;;0.03;50.98;101281.88;6277485;20;2500335;-44
2022/03/15 00:48:58;;;;;;;;;80.50;63.50;;;;;-0.43;52.20;101278.88;6282073;20;2871119;-44
2022/03/15 00:51:29;;;;;;;;;78.00;60.00;;;;;0.01;50.98;101268.66;6282231;20;2870074;-47
2022/03/15 00:53:59;;;;;;;;;84.00;61.67;;;;;-0.30;51.58;101276.34;6284321;20;3647123;-47
2022/03/15 00:56:28;;;;;;;;;81.00;62.50;;;;;-0.29;51.89;101264.94;6315208;20;2884799;-44
2022/03/15 00:58:56;;;;;;;;;82.50;64.00;;;;;-0.10;51.63;101260.66;6283688;20;2880603;-43
2022/03/15 01:01:26;;;;;;;;;89.00;65.00;;;;;-0.22;51.88;101256.16;6284734;20;2889875;-44
2022/03/15 01:03:56;;;;;;;;;89.00;68.33;;;;;-0.27;52.28;101257.00;6312866;20;3651282;-45
2022/03/15 01:06:24;;;;;;;;;85.00;65.00;;;;;0.20;51.58;101259.97;6309062;20;2500389;-47
2022/03/15 01:08:54;;;;;;;;;93.67;70.33;;;;;-0.17;51.68;101260.63;6281235;20;2892958;-44
2022/03/15 01:11:23;;;;;;;;;89.00;64.67;;;;;0.05;50.95;101259.00;6314740;20;3661663;-47
2022/03/15 01:13:52;;;;;;;;;76.50;60.00;;;;;-0.31;50.92;101261.38;6314846;20;2860010;-44
2022/03/15 01:16:20;;;;;;;;;78.50;56.50;;;;;-0.97;51.92;101258.13;6281096;20;2500239;-46
2022/03/15 01:18:49;;;;;;;;;75.50;55.00;;;;;-0.99;52.72;101254.59;6277570;20;2500792;-46
2022/03/15 01:21:19;;;;;;;;;73.00;55.50;;;;;-0.69;52.43;101256.63;6284462;20;2875272;-44
2022/03/15 01:23:47;;;;;;;;;81.50;56.50;;;;;-0.76;52.97;101252.19;6276919;20;2500295;-43
2022/03/15 01:26:16;;;;;;;;;84.00;61.00;;;;;-1.28;53.75;101259.53;6280241;20;2900506;-43
2022/03/15 01:28:45;;;;;;;;;78.50;61.00;;;;;-0.81;52.79;101259.16;6315486;20;2883599;-43
2022/03/15 01:31:14;;;;;;;;;77.00;58.50;;;;;-1.01;53.30;101263.34;6280905;20;2887740;-43
2022/03/15 01:33:42;;;;;;;;;73.00;54.00;;;;;-0.68;52.87;101253.16;6277433;20;2500270;-43
2022/03/15 01:36:10;;;;;;;;;77.00;60.00;;;;;-0.31;51.76;101255.22;6282925;20;2500336;-44
2022/03/15 01:38:39;;;;;;;;;77.80;57.80;;;;;-0.58;52.80;101248.84;6281298;20;3617974;-44
2022/03/15 01:41:06;;;;;;;;;80.50;60.50;;;;;-0.58;53.35;101245.31;6280740;20;2500389;-43
2022/03/15 01:43:39;;;;;;;;;89.67;60.33;;;;;-0.43;52.71;101244.56;6282933;20;3662827;-44
2022/03/15 01:46:08;;;;;;;;;87.50;62.50;;;;;-0.37;53.06;101248.16;6308715;20;2500289;-43
2022/03/15 01:48:36;;;;;;;;;77.00;60.50;;;;;-0.42;53.24;101244.59;6278774;20;2500353;-42
2022/03/15 01:51:04;;;;;;;;;84.50;64.00;;;;;-0.43;53.57;101250.72;6278101;20;2500254;-43
2022/03/15 01:53:34;;;;;;;;;88.20;64.40;;;;;-0.46;53.43;101250.69;6276987;20;3641999;-43
2022/03/15 01:56:05;;;;;;;;;93.00;65.33;;;;;-0.65;53.94;101249.66;6278598;20;3655437;-47
2022/03/15 01:58:34;;;;;;;;;89.33;66.67;;;;;-0.68;53.64;101250.50;6313739;20;2891969;-47
2022/03/15 02:01:04;;;;;;;;;87.00;64.33;;;;;-0.99;54.07;101243.16;6310318;20;2893080;-49
2022/03/15 02:03:33;;;;;;;;;82.00;61.50;;;;;-0.84;53.54;101243.31;6308327;20;2500261;-45
2022/03/15 02:06:05;;;;;;;;;96.67;68.00;;;;;-0.78;53.50;101247.78;6280336;20;2901423;-47
2022/03/15 02:08:34;;;;;;;;;86.50;65.00;;;;;-0.69;53.07;101240.81;6314931;20;2887815;-45
2022/03/15 02:11:04;;;;;;;;;82.33;63.67;;;;;-0.85;54.02;101227.47;6281296;20;2895154;-44
2022/03/15 02:13:34;;;;;;;;;91.67;66.67;;;;;-0.95;55.02;101223.84;6314577;20;2900288;-43
2022/03/15 02:16:07;;;;;;;;;88.67;68.67;;;;;-0.85;55.41;101230.13;6312328;20;2895048;-44
2022/03/15 02:18:38;;;;;;;;;94.33;69.67;;;;;-0.55;54.31;101229.53;6313357;20;3662749;-44
2022/03/15 02:21:08;;;;;;;;;93.67;69.33;;;;;-0.57;54.61;101233.91;6315252;20;2896171;-45
2022/03/15 02:23:38;;;;;;;;;87.67;66.67;;;;;-0.90;55.03;101228.31;6311213;20;2891113;-46
2022/03/15 02:26:06;;;;;;;;;84.00;67.00;;;;;-1.18;55.64;101240.31;6305579;20;2500248;-44
2022/03/15 02:28:36;;;;;;;;;91.00;65.00;;;;;-1.28;55.55;101230.53;6279004;20;3655450;-45
2022/03/15 02:31:06;;;;;;;;;92.67;66.00;;;;;-1.06;56.37;101230.78;6313537;20;3649180;-43
2022/03/15 02:33:35;;;;;;;;;84.67;65.67;;;;;-1.37;57.58;101240.94;6312573;20;2881586;-43
2022/03/15 02:36:04;;;;;;;;;87.00;66.50;;;;;-1.22;56.69;101241.13;6307449;20;2500239;-44
2022/03/15 02:38:33;;;;;;;;;86.00;64.33;;;;;-1.29;56.68;101244.59;6281248;20;3657558;-44
2022/03/15 02:41:03;;;;;;;;;84.67;63.33;;;;;-1.44;56.68;101247.91;6313974;20;2881536;-43
2022/03/15 02:43:33;;;;;;;;;93.00;65.67;;;;;-0.95;55.17;101248.50;6313438;20;2898220;-43
2022/03/15 02:46:01;;;;;;;;;76.50;61.50;;;;;-1.16;55.50;101251.78;6309785;20;2500282;-45
2022/03/15 02:48:30;;;;;;;;;81.00;59.50;;;;;-1.04;55.34;101244.84;6278950;20;2875238;-43
2022/03/15 02:51:06;;;;;;;;;80.33;59.00;;;;;-1.55;56.08;101247.78;6283155;20;2896113;-44
2022/03/15 02:53:38;;;;;;;;;74.00;61.00;;;;;-1.51;56.31;101242.53;6309920;20;2602351;-44
2022/03/15 02:56:11;;;;;;;;;83.50;62.00;;;;;-1.68;56.62;101248.47;6310528;20;2896112;-43
2022/03/15 02:58:41;;;;;;;;;83.33;59.67;;;;;-1.25;55.06;101251.66;6279792;20;2893049;-43
2022/03/15 03:01:11;;;;;;;;;94.00;68.67;;;;;-1.86;56.50;101242.97;6309680;20;3658578;-43
2022/03/15 03:03:39;;;;;;;;;75.00;55.00;;;;;-1.76;56.58;101236.97;6309058;20;2500444;-46
2022/03/15 03:06:09;;;;;;;;;89.00;65.00;;;;;-1.11;54.52;101243.91;6278428;20;3659740;-44
2022/03/15 03:08:40;;;;;;;;;88.00;67.33;;;;;-1.68;55.63;101245.84;6307889;20;3641905;-44
2022/03/15 03:11:08;;;;;;;;;90.00;68.00;;;;;-1.31;54.92;101251.59;6306193;20;2500235;-44
2022/03/15 03:13:37;;;;;;;;;84.00;64.00;;;;;-0.95;54.06;101253.75;6277430;20;2871234;-43
2022/03/15 03:16:07;;;;;;;;;86.33;67.67;;;;;-0.75;53.43;101258.34;6276970;20;3637741;-44
2022/03/15 03:18:37;;;;;;;;;91.00;68.00;;;;;-1.29;54.89;101256.84;6308618;20;2891909;-44
2022/03/15 03:21:07;;;;;;;;;90.00;69.50;;;;;-1.49;56.52;101254.88;6309615;20;2892974;-43
2022/03/15 03:23:36;;;;;;;;;78.50;56.00;;;;;-1.55;56.04;101255.69;6276517;20;2500298;-44
2022/03/15 03:26:06;;;;;;;;;93.67;70.33;;;;;-1.51;56.32;101253.97;6278352;20;3665020;-43
2022/03/15 03:28:37;;;;;;;;;87.50;66.00;;;;;-1.53;56.39;101249.53;6310091;20;2875365;-43
2022/03/15 03:31:10;;;;;;;;;89.67;70.33;;;;;-1.62;57.05;101248.56;6280567;20;2880460;-43
2022/03/15 03:33:40;;;;;;;;;88.67;68.00;;;;;-1.83;58.39;101246.50;6311234;20;2883639;-45
2022/03/15 03:36:10;;;;;;;;;98.67;68.67;;;;;-1.62;57.68;101256.44;6312338;20;3671085;-43
2022/03/15 03:38:41;;;;;;;;;91.67;68.00;;;;;-1.66;57.87;101251.13;6311160;20;2897216;-46
2022/03/15 03:41:11;;;;;;;;;90.67;69.33;;;;;-1.72;58.20;101254.56;6310105;20;2901425;-44
2022/03/15 03:43:40;;;;;;;;;93.33;70.33;;;;;-1.83;57.80;101258.78;6311614;20;2900413;-44
2022/03/15 03:46:10;;;;;;;;;89.33;66.67;;;;;-1.68;57.07;101255.50;6311441;20;3638939;-44
2022/03/15 03:48:40;;;;;;;;;88.33;67.67;;;;;-1.92;57.18;101259.56;6313649;20;2888819;-44
2022/03/15 03:51:11;;;;;;;;;95.67;68.33;;;;;-1.62;56.86;101255.56;6312418;20;2910774;-44
2022/03/15 03:53:41;;;;;;;;;79.00;59.00;;;;;-1.90;57.03;101254.28;6311919;20;2875297;-44
2022/03/15 03:56:10;;;;;;;;;96.67;69.67;;;;;-2.24;57.69;101253.78;6279139;20;2906532;-43
2022/03/15 03:58:38;;;;;;;;;80.00;65.00;;;;;-1.78;57.63;101251.84;6307315;20;2500252;-46
2022/03/15 04:01:07;;;;;;;;;91.20;66.80;;;;;-1.74;56.83;101261.53;6277979;20;3646297;-45
2022/03/15 04:03:38;;;;;;;;;85.50;64.00;;;;;-2.04;58.16;101268.13;6279870;20;2893150;-45
2022/03/15 04:06:11;;;;;;;;;95.67;71.67;;;;;-2.64;59.00;101268.91;6278491;20;2900365;-43
2022/03/15 04:08:42;;;;;;;;;94.33;67.67;;;;;-2.99;59.62;101271.75;6309518;20;3647130;-43
2022/03/15 04:11:11;;;;;;;;;85.00;63.00;;;;;-2.60;58.76;101260.22;6310844;20;2896116;-46
2022/03/15 04:13:41;;;;;;;;;91.17;68.17;;;;;-2.07;56.53;101260.19;6277612;20;3655500;-43
2022/03/15 04:16:11;;;;;;;;;96.33;68.67;;;;;-2.52;58.71;101263.84;6309847;20;2908730;-43
2022/03/15 04:18:39;;;;;;;;;82.00;61.00;;;;;-2.11;57.64;101271.53;6307948;20;2500402;-46
2022/03/15 04:21:08;;;;;;;;;83.00;64.60;;;;;-2.10;57.67;101268.06;6277901;20;3645146;-44
2022/03/15 04:23:36;;;;;;;;;86.33;64.67;;;;;-2.22;58.05;101262.59;6277314;20;2894030;-44
2022/03/15 04:26:05;;;;;;;;;83.00;60.50;;;;;-1.99;57.43;101265.59;6307939;20;2893193;-45
2022/03/15 04:28:34;;;;;;;;;86.00;63.00;;;;;-2.13;57.98;101267.09;6277282;20;2894095;-45
2022/03/15 04:31:04;;;;;;;;;108.00;78.33;;;;;-1.62;55.92;101263.47;6276142;20;3662773;-46
2022/03/15 04:33:34;;;;;;;;;92.00;66.00;;;;;-1.70;55.78;101273.03;6310180;20;2901385;-46
2022/03/15 04:36:02;;;;;;;;;99.00;68.00;;;;;-1.66;56.18;101265.19;6307983;20;2899257;-44
2022/03/15 04:38:32;;;;;;;;;97.00;73.67;;;;;-1.59;55.84;101267.03;6277962;20;3664833;-46
2022/03/15 04:41:02;;;;;;;;;94.33;68.33;;;;;-1.72;56.36;101269.47;6311193;20;2894054;-46
2022/03/15 04:43:33;;;;;;;;;95.00;73.00;;;;;-1.80;56.48;101266.72;6311045;20;3661751;-44
2022/03/15 04:46:03;;;;;;;;;101.67;73.33;;;;;-2.08;57.87;101275.94;6309023;20;3691943;-44
2022/03/15 04:48:36;;;;;;;;;99.67;72.33;;;;;-2.25;58.44;101273.06;6315366;20;3655421;-44
2022/03/15 04:51:07;;;;;;;;;93.67;68.67;;;;;-2.15;57.49;101275.00;6315677;20;2906606;-44
2022/03/15 04:53:37;;;;;;;;;92.33;69.33;;;;;-1.94;57.82;101281.44;6313407;20;2890031;-44
2022/03/15 04:56:07;;;;;;;;;95.33;66.00;;;;;-2.24;58.61;101285.34;6315312;20;3666947;-43
2022/03/15 04:58:36;;;;;;;;;100.33;71.33;;;;;-1.82;57.41;101282.53;6312090;20;3671361;-44
2022/03/15 05:01:05;;;;;;;;;67.50;40.50;;;;;-1.69;56.39;101293.22;6316013;20;2881588;-43
2022/03/15 05:03:35;;;;;;;;;100.00;69.00;;;;;-2.12;58.08;101285.56;6282341;20;3675351;-45
2022/03/15 05:06:04;;;;;;;;;81.50;60.00;;;;;-1.92;57.81;101287.59;6310598;20;2500294;-46
2022/03/15 05:08:33;;;;;;;;;78.20;56.60;;;;;-1.96;57.75;101285.81;6281626;20;3635680;-44
2022/03/15 05:11:07;;;;;;;;;84.40;64.00;;;;;-2.19;58.81;101283.69;6281482;20;3626290;-44
2022/03/15 05:13:45;;;;;;;;;84.00;63.00;;;;;-1.86;57.97;101288.59;6278807;20;2500270;-43
2022/03/15 05:16:19;;;;;;;;;83.00;64.00;;;;;-1.95;58.23;101293.69;6283695;20;2870060;-44
2022/03/15 05:18:53;;;;;;;;;88.33;65.67;;;;;-2.16;58.53;101296.88;6281565;20;3650368;-44
2022/03/15 05:21:27;;;;;;;;;81.00;62.67;;;;;-2.30;59.87;101290.50;6315783;20;2886770;-48
2022/03/15 05:23:56;;;;;;;;;92.33;64.00;;;;;-2.32;60.48;101289.59;6314804;20;2912941;-51
2022/03/15 05:26:26;;;;;;;;;82.67;57.33;;;;;-2.32;60.35;101292.22;6314689;20;2895135;-46
2022/03/15 05:28:56;;;;;;;;;90.00;63.67;;;;;-2.11;59.49;101291.69;6313347;20;2909691;-47
2022/03/15 05:31:26;;;;;;;;;87.00;65.00;;;;;-2.04;59.71;101290.94;6309546;20;2500367;-46
2022/03/15 05:33:56;;;;;;;;;92.33;65.67;;;;;-1.71;58.13;101287.94;6279358;20;3652293;-45
2022/03/15 05:36:24;;;;;;;;;84.00;66.00;;;;;-1.96;59.53;101285.81;6311815;20;2500284;-44
2022/03/15 05:38:54;;;;;;;;;92.33;68.33;;;;;-1.66;58.52;101283.63;6281031;20;3642947;-44
2022/03/15 05:41:26;;;;;;;;;86.50;63.00;;;;;-1.19;57.19;101291.25;6312212;20;2893984;-46
2022/03/15 05:43:56;;;;;;;;;100.00;72.33;;;;;-0.52;55.06;101287.59;6283856;20;3674207;-44
2022/03/15 05:46:26;;;;;;;;;96.33;72.33;;;;;-0.51;55.29;101289.34;6313791;20;3666337;-44
2022/03/15 05:48:56;;;;;;;;;92.00;72.67;;;;;-0.70;55.87;101283.88;6310250;20;3641975;-45
2022/03/15 05:51:26;;;;;;;;;95.67;68.33;;;;;-0.27;54.96;101284.28;6314062;20;2897184;-46
2022/03/15 05:53:55;;;;;;;;;92.33;68.67;;;;;0.05;54.02;101274.84;6313910;20;3648160;-44
2022/03/15 05:56:24;;;;;;;;;88.00;67.00;;;;;0.06;53.55;101282.78;6312503;20;2893041;-46
2022/03/15 05:58:54;;;;;;;;;85.33;63.33;;;;;0.10;53.77;101273.13;6280693;20;2889295;-44
2022/03/15 06:01:23;;;;;;;;;87.67;64.67;;;;;0.40;54.08;101277.72;6314109;20;3665918;-44
2022/03/15 06:03:53;;;;;;;;;91.67;65.67;;;;;0.78;52.50;101274.38;6314473;20;3663773;-44
2022/03/15 06:06:24;;;;;;;;;93.00;69.67;;;;;2.21;48.11;101280.72;6314897;20;3668051;-44
2022/03/15 06:08:54;;;;;;;;;86.00;61.00;;;;;2.50;47.45;101277.13;6314089;20;3658662;-46
2022/03/15 06:11:24;;;;;;;;;87.67;64.00;;;;;3.10;45.98;101280.41;6314628;20;3646084;-46
2022/03/15 06:13:53;;;;;;;;;82.33;61.67;;;;;3.05;46.20;101274.25;6314069;20;3659660;-44
2022/03/15 06:16:23;;;;;;;;;85.00;61.67;;;;;4.03;43.44;101284.19;6314612;20;3650393;-47
2022/03/15 06:18:53;;;;;;;;;83.67;55.33;;;;;3.40;44.83;101281.16;6312333;20;3658580;-46
2022/03/15 06:21:23;;;;;;;;;93.33;68.33;;;;;3.54;44.52;101291.66;6314664;20;3664818;-48
2022/03/15 06:23:53;;;;;;;;;92.00;67.33;;;;;2.64;46.35;101280.63;6279092;20;3660655;-46
2022/03/15 06:26:38;;;;;;;;;94.67;70.00;;;;;1.61;49.57;101282.53;6311657;20;3642973;-45
2022/03/15 06:29:08;;;;;;;;;87.67;66.00;;;;;1.68;50.24;101281.63;6313735;20;3642980;-46
2022/03/15 06:31:38;;;;;;;;;90.33;65.33;;;;;1.75;49.49;101283.41;6314389;20;3664444;-46
2022/03/15 06:34:08;;;;;;;;;91.67;67.67;;;;;1.25;51.42;101282.44;6312985;20;2904644;-45
2022/03/15 06:36:37;;;;;;;;;85.33;65.33;;;;;1.78;49.09;101286.03;6309654;20;3643963;-45
2022/03/15 06:39:07;;;;;;;;;86.00;62.67;;;;;2.36;48.32;101282.47;6310469;20;2904615;-45
2022/03/15 06:41:39;;;;;;;;;84.33;61.33;;;;;2.49;47.97;101288.63;6312923;20;3638782;-45
2022/03/15 06:44:08;;;;;;;;;74.00;58.00;;;;;2.72;45.50;101293.84;6313057;20;2500343;-45
2022/03/15 06:46:37;;;;;;;;;76.00;55.00;;;;;3.23;44.10;101294.50;6308433;20;2893029;-43
2022/03/15 06:49:06;;;;;;;;;65.00;52.00;;;;;3.58;42.74;101293.38;6307938;20;2881491;-45
2022/03/15 06:51:35;;;;;;;;;72.50;55.50;;;;;3.61;42.90;101291.63;6312164;20;2871292;-44
2022/03/15 06:54:05;;;;;;;;;74.50;56.00;;;;;3.77;42.70;101296.81;6279803;20;2894081;-45
2022/03/15 06:56:34;;;;;;;;;69.00;52.33;;;;;3.63;42.39;101294.25;6310761;20;2886700;-44
2022/03/15 06:59:04;;;;;;;;;72.67;58.33;;;;;4.10;42.37;101283.22;6311066;20;2902335;-45
2022/03/15 07:01:34;;;;;;;;;76.00;59.00;;;;;4.46;41.01;101294.41;6311997;20;2879523;-44
2022/03/15 07:04:04;;;;;;;;;80.33;57.00;;;;;4.33;41.38;101290.09;6313899;20;3652340;-46
2022/03/15 07:06:34;;;;;;;;;80.00;61.00;;;;;4.32;41.61;101301.66;6314137;20;3637780;-44
2022/03/15 07:09:04;;;;;;;;;76.00;59.33;;;;;4.99;41.13;101295.53;6310945;20;3625657;-46
2022/03/15 07:11:34;;;;;;;;;84.00;62.00;;;;;4.69;40.21;101295.94;6313491;20;3641965;-45
2022/03/15 07:14:04;;;;;;;;;76.67;59.67;;;;;5.70;39.92;101289.22;6311345;20;3631553;-46
2022/03/15 07:16:34;;;;;;;;;81.33;60.00;;;;;6.90;36.72;101297.75;6313523;20;3655500;-46
2022/03/15 07:19:04;;;;;;;;;81.67;60.67;;;;;8.33;35.46;101295.31;6278737;20;3650267;-47
2022/03/15 07:21:35;;;;;;;;;110.25;87.75;;;;;8.19;35.40;101305.47;6314112;20;3692076;-50
2022/03/15 07:24:05;;;;;;;;;94.67;76.00;;;;;7.03;36.85;101293.94;6312213;20;3663769;-44
2022/03/15 07:26:35;;;;;;;;;92.33;66.00;;;;;7.12;38.27;101292.84;6279406;20;3655553;-45
2022/03/15 07:29:04;;;;;;;;;81.67;62.00;;;;;6.22;38.94;101293.72;6277846;20;3640054;-47
2022/03/15 07:31:34;;;;;;;;;82.67;58.67;;;;;6.54;38.42;101294.91;6313855;20;3659635;-46
2022/03/15 07:34:04;;;;;;;;;90.00;66.67;;;;;7.13;37.79;101292.81;6278274;20;3644442;-47
2022/03/15 07:36:36;;;;;;;;;85.33;65.67;;;;;6.62;38.92;101290.31;6307502;20;3649208;-46
2022/03/15 07:39:05;;;;;;;;;86.67;65.67;;;;;7.11;38.59;101297.34;6276299;20;3650226;-44
2022/03/15 07:41:39;;;;;;;;;79.67;58.67;;;;;7.06;38.32;101283.19;6312189;20;3647154;-46
2022/03/15 07:44:10;;;;;;;;;75.00;58.33;;;;;7.85;36.84;101291.16;6311509;20;3612748;-48
2022/03/15 07:46:48;;;;;;;;;74.00;56.33;;;;;7.88;36.96;101283.06;6311764;20;3636692;-46
2022/03/15 07:49:20;;;;;;;;;80.00;60.67;;;;;8.24;36.57;101283.06;6309174;20;3641930;-45
2022/03/15 07:51:51;;;;;;;;;69.33;50.67;;;;;8.00;36.10;101287.22;6278960;20;3636846;-44
2022/03/15 07:54:21;;;;;;;;;74.00;53.67;;;;;8.22;36.06;101284.88;6308438;20;3656455;-43
2022/03/15 07:56:50;;;;;;;;;69.00;57.00;;;;;8.34;35.69;101278.31;6313081;20;2809620;-43
2022/03/15 07:59:23;;;;;;;;;61.00;50.00;;;;;8.70;35.18;101283.63;6284282;20;2864879;-43
2022/03/15 08:01:52;;;;;;;;;63.00;50.00;;;;;8.46;34.66;101282.50;6284640;20;2853428;-44
2022/03/15 08:04:22;;;;;;;;;61.00;49.00;;;;;7.81;35.54;101286.78;6283723;20;2871185;-42
2022/03/15 08:06:51;;;;;;;;;65.33;50.67;;;;;8.73;34.77;101287.09;6314003;20;3626346;-43
2022/03/15 08:09:22;;;;;;;;;59.00;48.00;;;;;9.02;34.49;101288.94;6313462;20;2860659;-48
2022/03/15 08:11:52;;;;;;;;;62.00;49.00;;;;;8.76;34.77;101283.44;6314832;20;3591109;-49
2022/03/15 08:14:22;;;;;;;;;66.67;51.00;;;;;9.19;34.15;101287.56;6309615;20;3629417;-51
2022/03/15 08:16:50;;;;;;;;;59.00;47.00;;;;;9.95;33.93;101291.41;6315094;20;2861788;-50
2022/03/15 08:19:20;;;;;;;;;68.00;50.33;;;;;9.98;34.15;101284.16;6279766;20;2887857;-49
2022/03/15 08:21:50;;;;;;;;;68.33;51.67;;;;;10.21;33.63;101287.84;6318949;20;3624199;-47
2022/03/15 08:24:22;;;;;;;;;61.00;48.00;;;;;10.12;32.89;101286.38;6319818;20;3625211;-51
2022/03/15 08:26:51;;;;;;;;;64.00;50.00;;;;;10.90;33.02;101288.09;6315113;20;2863797;-49
2022/03/15 08:29:21;;;;;;;;;66.00;48.67;;;;;10.78;32.15;101284.06;6316206;20;3631504;-47
2022/03/15 08:31:52;;;;;;;;;75.00;56.00;;;;;11.48;32.13;101288.56;6318802;20;3643006;-48
2022/03/15 08:34:21;;;;;;;;;75.33;55.67;;;;;12.03;31.38;101283.66;6283319;20;3652013;-50
2022/03/15 08:36:53;;;;;;;;;62.33;48.00;;;;;11.80;31.09;101289.09;6286210;20;2853393;-52
2022/03/15 08:39:23;;;;;;;;;54.50;44.50;;;;;11.95;30.91;101280.38;6318049;20;2853467;-44
2022/03/15 08:41:54;;;;;;;;;61.33;46.33;;;;;12.00;30.81;101289.16;6288538;20;3627388;-43
2022/03/15 08:44:24;;;;;;;;;59.67;44.00;;;;;12.05;30.58;101289.84;6319766;20;3626343;-49
2022/03/15 08:46:55;;;;;;;;;54.33;44.00;;;;;11.77;31.79;101289.19;6316997;20;2845163;-44
2022/03/15 08:49:24;;;;;;;;;63.00;47.33;;;;;12.29;30.02;101281.66;6317991;20;3631535;-49
2022/03/15 08:51:54;;;;;;;;;59.00;45.33;;;;;12.78;29.94;101282.19;6319957;20;2869165;-51
2022/03/15 08:54:26;;;;;;;;;57.00;44.67;;;;;12.59;31.32;101276.75;6318205;20;3623164;-49
2022/03/15 08:56:56;;;;;;;;;52.33;42.00;;;;;12.23;29.97;101268.47;6320223;20;2851374;-50
2022/03/15 08:59:26;;;;;;;;;47.00;37.00;;;;;12.68;30.04;101272.78;6319335;20;2862869;-45
2022/03/15 09:01:57;;;;;;;;;51.67;42.33;;;;;12.56;30.04;101265.22;6318849;20;3612728;-44
2022/03/15 09:04:27;;;;;;;;;61.67;48.67;;;;;12.74;29.60;101264.41;6319419;20;2879529;-46
2022/03/15 09:06:56;;;;;;;;;51.33;42.00;;;;;12.85;29.56;101255.81;6320357;20;3606598;-45
2022/03/15 09:09:27;;;;;;;;;50.00;41.33;;;;;12.52;29.37;101251.03;6317974;20;2857742;-46
2022/03/15 09:11:57;;;;;;;;;64.67;50.33;;;;;13.07;29.34;101250.34;6318791;20;3642003;-51
2022/03/15 09:14:27;;;;;;;;;64.67;52.00;;;;;13.34;29.23;101250.88;6319435;20;3626393;-44
2022/03/15 09:16:57;;;;;;;;;54.00;44.67;;;;;13.58;29.17;101251.50;6319124;20;2860777;-45
2022/03/15 09:19:27;;;;;;;;;51.33;39.00;;;;;13.98;28.23;101249.50;6318102;20;3630530;-47
2022/03/15 09:22:01;;;;;;;;;54.33;45.00;;;;;13.41;28.96;101251.47;6318444;20;2858707;-46
2022/03/15 09:24:32;;;;;;;;;56.67;47.67;;;;;13.34;29.15;101243.66;6319249;20;3603407;-47
2022/03/15 09:27:02;;;;;;;;;59.67;45.33;;;;;13.71;29.04;101240.97;6318854;20;3610632;-46
2022/03/15 09:29:32;;;;;;;;;62.67;48.33;;;;;14.23;28.80;101233.78;6285791;20;3623295;-45
2022/03/15 09:32:01;;;;;;;;;54.33;42.00;;;;;14.76;28.27;101231.06;6317933;20;3613937;-46
2022/03/15 09:34:31;;;;;;;;;53.67;43.00;;;;;14.03;28.54;101225.84;6286280;20;2861782;-44
2022/03/15 09:37:00;;;;;;;;;51.00;41.33;;;;;14.46;28.79;101223.63;6317601;20;2865066;-44
2022/03/15 09:39:33;;;;;;;;;49.67;40.67;;;;;14.46;28.07;101231.72;6314675;20;2851425;-50
2022/03/15 09:42:09;;;;;;;;;51.33;41.00;;;;;14.37;28.24;101219.56;6317370;20;3616977;-49
2022/03/15 09:44:41;;;;;;;;;55.00;43.67;;;;;14.80;27.41;101228.13;6314384;20;3593954;-47
2022/03/15 09:47:14;;;;;;;;;44.67;35.00;;;;;14.70;27.34;101218.75;6319428;20;3616986;-47
2022/03/15 09:49:45;;;;;;;;;50.67;39.00;;;;;14.50;27.61;101211.69;6281251;20;3623185;-48
2022/03/15 09:52:19;;;;;;;;;37.00;34.67;;;;;14.89;27.89;101200.56;6318359;20;3595023;-47
2022/03/15 09:54:49;;;;;;;;;47.67;37.33;;;;;14.34;27.57;101208.03;6284164;20;2856594;-46
2022/03/15 09:57:19;;;;;;;;;36.67;32.33;;;;;14.48;27.79;101202.75;6319176;20;3599237;-46
2022/03/15 09:59:52;;;;;;;;;39.00;36.00;;;;;14.80;27.08;101189.41;6282597;20;2850587;-47
2022/03/15 10:02:22;;;;;;;;;49.00;36.33;;;;;15.45;26.82;101197.44;6317483;20;3635705;-46
2022/03/15 10:04:50;;;;;;;;;14.50;10.50;;;;;15.13;26.67;101183.91;6320425;20;2792969;-44
2022/03/15 10:07:19;;;;;;;;;43.67;33.67;;;;;15.59;26.00;101184.84;6290011;20;3626262;-46
2022/03/15 10:09:48;;;;;;;;;34.33;31.33;;;;;15.22;26.44;101178.00;6286812;20;3598126;-47
2022/03/15 10:12:18;;;;;;;;;36.33;32.00;;;;;15.51;26.46;101170.91;6289497;20;3596187;-48
2022/03/15 10:14:49;;;;;;;;;26.00;24.00;;;;;14.86;26.47;101178.22;6286024;20;2839870;-46
2022/03/15 10:17:18;;;;;;;;;30.67;29.00;;;;;15.40;26.20;101176.03;6288556;20;3588752;-45
2022/03/15 10:19:57;;;;;;;;;28.33;26.67;;;;;15.41;26.18;101163.41;6289261;20;3604406;-45
2022/03/15 10:22:26;;;;;;;;;36.00;31.67;;;;;15.20;26.83;101162.81;6290212;20;3598166;-44
2022/03/15 10:24:56;;;;;;;;;34.00;32.00;;;;;15.22;26.59;101155.44;6288544;20;3588871;-45
2022/03/15 10:27:25;;;;;;;;;36.67;33.00;;;;;15.73;26.35;101162.41;6288462;20;3596084;-44
2022/03/15 10:29:54;;;;;;;;;31.33;30.00;;;;;15.84;25.78;101156.34;6286701;20;3584643;-44
2022/03/15 10:32:24;;;;;;;;;28.67;26.33;;;;;15.75;25.94;101157.78;6288515;20;3583579;-45
2022/03/15 10:35:09;;;;;;;;;30.33;25.67;;;;;15.83;25.63;101148.34;6284200;20;3593077;-44
2022/03/15 10:37:41;;;;;;;;;36.67;31.00;;;;;15.99;25.39;101146.44;6321780;20;3604386;-48
2022/03/15 10:40:11;;;;;;;;;19.33;18.00;;;;;15.32;25.90;101143.13;6284646;20;3533563;-49
2022/03/15 10:42:42;;;;;;;;;32.67;30.33;;;;;15.83;25.41;101137.50;6319839;20;3583633;-48
2022/03/15 10:45:15;;;;;;;;;34.33;32.67;;;;;15.97;25.12;101130.25;6286275;20;3595032;-43
2022/03/15 10:47:54;;;;;;;;;32.33;27.67;;;;;16.55;25.11;101124.91;6288681;20;3590864;-47
2022/03/15 10:50:24;;;;;;;;;36.33;31.33;;;;;16.27;24.23;101123.91;6286244;20;3600368;-45
2022/03/15 10:52:54;;;;;;;;;40.75;31.25;;;;;16.10;24.86;101118.69;6285261;20;3621218;-44
2022/03/15 10:55:28;;;;;;;;;31.33;31.00;;;;;16.36;24.68;101109.78;6319602;20;3591956;-43
2022/03/15 10:57:59;;;;;;;;;28.00;24.00;;;;;16.15;24.96;101106.59;6287236;20;3592952;-43
2022/03/15 11:00:36;;;;;;;;;36.67;32.67;;;;;16.20;25.12;101106.31;6286129;20;3604376;-42
2022/03/15 11:03:13;;;;;;;;;30.00;28.00;;;;;16.02;24.74;101101.03;6287143;20;3585666;-43
2022/03/15 11:05:43;;;;;;;;;30.33;29.00;;;;;16.50;24.84;101095.34;6285662;20;3597107;-44
2022/03/15 11:08:15;;;;;;;;;37.00;32.67;;;;;16.79;25.34;101089.94;6286843;20;3599196;-44